sensor_id;sensor_type;location;lat;lon;timestamp;temperature;humidity
79030;DHT22;68511;51.146;7.012;2023-09-07T00:00:23;19.50;66.10
79030;DHT22;68511;51.146;7.012;2023-09-07T00:01:24;19.50;66.10
79030;DHT22;68511;51.146;7.012;2023-09-07T00:02:24;19.50;66.10
79030;DHT22;68511;51.146;7.012;2023-09-07T00:03:25;19.50;66.10
79030;DHT22;68511;51.146;7.012;2023-09-07T00:04:25;19.50;66.10
79030;DHT22;68511;51.146;7.012;2023-09-07T00:05:26;19.50;66.10
79030;DHT22;68511;51.146;7.012;2023-09-07T00:06:26;19.50;66.20
79030;DHT22;68511;51.146;7.012;2023-09-07T00:07:27;19.50;66.20
79030;DHT22;68511;51.146;7.012;2023-09-07T00:08:27;19.50;66.10
79030;DHT22;68511;51.146;7.012;2023-09-07T00:09:27;19.50;66.10
79030;DHT22;68511;51.146;7.012;2023-09-07T00:10:28;19.50;66.10
79030;DHT22;68511;51.146;7.012;2023-09-07T00:11:29;19.50;66.10
79030;DHT22;68511;51.146;7.012;2023-09-07T00:12:29;19.50;66.10
79030;DHT22;68511;51.146;7.012;2023-09-07T00:13:30;19.50;66.10
79030;DHT22;68511;51.146;7.012;2023-09-07T00:14:30;19.50;66.10
79030;DHT22;68511;51.146;7.012;2023-09-07T00:15:35;19.50;66.10
79030;DHT22;68511;51.146;7.012;2023-09-07T00:16:36;19.50;66.10
79030;DHT22;68511;51.146;7.012;2023-09-07T00:17:38;19.50;66.10
79030;DHT22;68511;51.146;7.012;2023-09-07T00:18:38;19.50;66.10
79030;DHT22;68511;51.146;7.012;2023-09-07T00:19:39;19.50;66.10
79030;DHT22;68511;51.146;7.012;2023-09-07T00:20:39;19.50;66.10
79030;DHT22;68511;51.146;7.012;2023-09-07T00:21:40;19.50;66.10
79030;DHT22;68511;51.146;7.012;2023-09-07T00:22:41;19.50;66.10
79030;DHT22;68511;51.146;7.012;2023-09-07T00:23:41;19.50;66.10
79030;DHT22;68511;51.146;7.012;2023-09-07T00:24:42;19.50;66.10
79030;DHT22;68511;51.146;7.012;2023-09-07T00:25:42;19.50;66.10
79030;DHT22;68511;51.146;7.012;2023-09-07T00:26:44;19.50;66.00
79030;DHT22;68511;51.146;7.012;2023-09-07T00:27:45;19.50;66.00
79030;DHT22;68511;51.146;7.012;2023-09-07T00:28:45;19.50;66.00
79030;DHT22;68511;51.146;7.012;2023-09-07T00:29:46;19.50;66.10
79030;DHT22;68511;51.146;7.012;2023-09-07T00:30:46;19.50;66.10
79030;DHT22;68511;51.146;7.012;2023-09-07T00:31:47;19.50;66.00
79030;DHT22;68511;51.146;7.012;2023-09-07T00:32:47;19.50;66.00
79030;DHT22;68511;51.146;7.012;2023-09-07T00:33:47;19.50;66.00
79030;DHT22;68511;51.146;7.012;2023-09-07T00:34:48;19.50;66.00
79030;DHT22;68511;51.146;7.012;2023-09-07T00:35:48;19.50;66.00
79030;DHT22;68511;51.146;7.012;2023-09-07T00:36:49;19.50;66.00
79030;DHT22;68511;51.146;7.012;2023-09-07T00:37:49;19.50;66.00
79030;DHT22;68511;51.146;7.012;2023-09-07T00:38:50;19.50;66.00
79030;DHT22;68511;51.146;7.012;2023-09-07T00:39:50;19.50;66.00
79030;DHT22;68511;51.146;7.012;2023-09-07T00:40:52;19.50;65.90
79030;DHT22;68511;51.146;7.012;2023-09-07T00:41:53;19.50;65.90
79030;DHT22;68511;51.146;7.012;2023-09-07T00:42:53;19.50;65.90
79030;DHT22;68511;51.146;7.012;2023-09-07T00:43:54;19.50;66.00
79030;DHT22;68511;51.146;7.012;2023-09-07T00:44:54;19.50;65.90
79030;DHT22;68511;51.146;7.012;2023-09-07T00:45:55;19.50;65.90
79030;DHT22;68511;51.146;7.012;2023-09-07T00:46:58;19.50;65.90
79030;DHT22;68511;51.146;7.012;2023-09-07T00:47:59;19.50;65.90
79030;DHT22;68511;51.146;7.012;2023-09-07T00:48:59;19.50;65.90
79030;DHT22;68511;51.146;7.012;2023-09-07T00:50:00;19.50;66.00
79030;DHT22;68511;51.146;7.012;2023-09-07T00:51:01;19.50;65.90
79030;DHT22;68511;51.146;7.012;2023-09-07T00:52:01;19.50;65.80
79030;DHT22;68511;51.146;7.012;2023-09-07T00:53:02;19.50;65.90
79030;DHT22;68511;51.146;7.012;2023-09-07T00:54:04;19.50;65.90
79030;DHT22;68511;51.146;7.012;2023-09-07T00:55:05;19.50;65.90
79030;DHT22;68511;51.146;7.012;2023-09-07T00:56:06;19.50;65.90
79030;DHT22;68511;51.146;7.012;2023-09-07T00:57:07;19.50;65.90
79030;DHT22;68511;51.146;7.012;2023-09-07T00:58:07;19.50;65.90
79030;DHT22;68511;51.146;7.012;2023-09-07T00:59:08;19.50;66.60
79030;DHT22;68511;51.146;7.012;2023-09-07T01:00:09;19.50;65.90
79030;DHT22;68511;51.146;7.012;2023-09-07T01:01:09;19.50;65.90
79030;DHT22;68511;51.146;7.012;2023-09-07T01:02:10;19.50;65.80
79030;DHT22;68511;51.146;7.012;2023-09-07T01:03:10;19.50;65.90
79030;DHT22;68511;51.146;7.012;2023-09-07T01:04:11;19.50;65.90
79030;DHT22;68511;51.146;7.012;2023-09-07T01:05:11;19.50;65.90
79030;DHT22;68511;51.146;7.012;2023-09-07T01:06:15;19.50;65.90
79030;DHT22;68511;51.146;7.012;2023-09-07T01:07:17;19.50;65.90
79030;DHT22;68511;51.146;7.012;2023-09-07T01:08:25;19.50;65.90
79030;DHT22;68511;51.146;7.012;2023-09-07T01:09:28;19.50;65.90
79030;DHT22;68511;51.146;7.012;2023-09-07T01:10:31;19.50;65.90
79030;DHT22;68511;51.146;7.012;2023-09-07T01:11:35;19.50;65.90
79030;DHT22;68511;51.146;7.012;2023-09-07T01:12:36;19.50;65.90
79030;DHT22;68511;51.146;7.012;2023-09-07T01:13:36;19.50;65.90
79030;DHT22;68511;51.146;7.012;2023-09-07T01:14:37;19.50;65.80
79030;DHT22;68511;51.146;7.012;2023-09-07T01:15:37;19.50;65.80
79030;DHT22;68511;51.146;7.012;2023-09-07T01:16:38;19.50;65.70
79030;DHT22;68511;51.146;7.012;2023-09-07T01:17:39;19.50;65.80
79030;DHT22;68511;51.146;7.012;2023-09-07T01:18:41;19.50;65.80
79030;DHT22;68511;51.146;7.012;2023-09-07T01:19:42;19.50;65.80
79030;DHT22;68511;51.146;7.012;2023-09-07T01:20:42;19.50;65.80
79030;DHT22;68511;51.146;7.012;2023-09-07T01:21:44;19.50;65.80
79030;DHT22;68511;51.146;7.012;2023-09-07T01:22:45;19.50;65.80
79030;DHT22;68511;51.146;7.012;2023-09-07T01:23:46;19.50;65.80
79030;DHT22;68511;51.146;7.012;2023-09-07T01:24:46;19.50;65.80
79030;DHT22;68511;51.146;7.012;2023-09-07T01:25:47;19.50;65.80
79030;DHT22;68511;51.146;7.012;2023-09-07T01:26:48;19.50;65.80
79030;DHT22;68511;51.146;7.012;2023-09-07T01:27:49;19.50;65.80
79030;DHT22;68511;51.146;7.012;2023-09-07T01:28:50;19.50;65.80
79030;DHT22;68511;51.146;7.012;2023-09-07T01:29:51;19.50;65.70
79030;DHT22;68511;51.146;7.012;2023-09-07T01:30:52;19.50;65.70
79030;DHT22;68511;51.146;7.012;2023-09-07T01:31:53;19.50;65.80
79030;DHT22;68511;51.146;7.012;2023-09-07T01:32:53;19.50;65.70
79030;DHT22;68511;51.146;7.012;2023-09-07T01:33:54;19.50;65.70
79030;DHT22;68511;51.146;7.012;2023-09-07T01:34:55;19.50;65.80
79030;DHT22;68511;51.146;7.012;2023-09-07T01:35:57;19.50;65.80
79030;DHT22;68511;51.146;7.012;2023-09-07T01:36:57;19.50;65.80
79030;DHT22;68511;51.146;7.012;2023-09-07T01:37:57;19.50;65.80
79030;DHT22;68511;51.146;7.012;2023-09-07T01:38:58;19.50;65.80
79030;DHT22;68511;51.146;7.012;2023-09-07T01:39:58;19.50;66.20
79030;DHT22;68511;51.146;7.012;2023-09-07T01:41:01;19.50;65.70
79030;DHT22;68511;51.146;7.012;2023-09-07T01:42:01;19.50;65.80
79030;DHT22;68511;51.146;7.012;2023-09-07T01:43:01;19.50;65.80
79030;DHT22;68511;51.146;7.012;2023-09-07T01:44:02;19.50;65.70
79030;DHT22;68511;51.146;7.012;2023-09-07T01:45:03;19.50;65.70
79030;DHT22;68511;51.146;7.012;2023-09-07T01:46:03;19.50;65.70
79030;DHT22;68511;51.146;7.012;2023-09-07T01:47:04;19.50;65.70
79030;DHT22;68511;51.146;7.012;2023-09-07T01:48:14;19.50;65.70
79030;DHT22;68511;51.146;7.012;2023-09-07T01:49:14;19.50;65.70
79030;DHT22;68511;51.146;7.012;2023-09-07T01:50:15;19.50;65.70
79030;DHT22;68511;51.146;7.012;2023-09-07T01:51:15;19.50;65.70
79030;DHT22;68511;51.146;7.012;2023-09-07T01:52:16;19.50;65.70
79030;DHT22;68511;51.146;7.012;2023-09-07T01:53:16;19.50;65.70
79030;DHT22;68511;51.146;7.012;2023-09-07T01:54:16;19.50;65.70
79030;DHT22;68511;51.146;7.012;2023-09-07T01:55:17;19.50;65.70
79030;DHT22;68511;51.146;7.012;2023-09-07T01:56:17;19.50;65.70
79030;DHT22;68511;51.146;7.012;2023-09-07T01:57:19;19.50;65.70
79030;DHT22;68511;51.146;7.012;2023-09-07T01:58:19;19.50;65.70
79030;DHT22;68511;51.146;7.012;2023-09-07T01:59:20;19.50;65.70
79030;DHT22;68511;51.146;7.012;2023-09-07T02:00:20;19.50;65.60
79030;DHT22;68511;51.146;7.012;2023-09-07T02:01:26;19.50;65.60
79030;DHT22;68511;51.146;7.012;2023-09-07T02:02:26;19.50;65.60
79030;DHT22;68511;51.146;7.012;2023-09-07T02:03:27;19.50;65.60
79030;DHT22;68511;51.146;7.012;2023-09-07T02:04:27;19.50;65.60
79030;DHT22;68511;51.146;7.012;2023-09-07T02:05:28;19.50;65.60
79030;DHT22;68511;51.146;7.012;2023-09-07T02:06:28;19.50;65.70
79030;DHT22;68511;51.146;7.012;2023-09-07T02:07:29;19.50;65.60
79030;DHT22;68511;51.146;7.012;2023-09-07T02:08:29;19.50;65.60
79030;DHT22;68511;51.146;7.012;2023-09-07T02:09:30;19.50;65.70
79030;DHT22;68511;51.146;7.012;2023-09-07T02:10:30;19.50;65.70
79030;DHT22;68511;51.146;7.012;2023-09-07T02:11:31;19.50;65.60
79030;DHT22;68511;51.146;7.012;2023-09-07T02:12:31;19.50;65.60
79030;DHT22;68511;51.146;7.012;2023-09-07T02:13:31;19.50;65.60
79030;DHT22;68511;51.146;7.012;2023-09-07T02:14:32;19.50;65.60
79030;DHT22;68511;51.146;7.012;2023-09-07T02:15:32;19.50;65.60
79030;DHT22;68511;51.146;7.012;2023-09-07T02:16:33;19.50;65.60
79030;DHT22;68511;51.146;7.012;2023-09-07T02:17:33;19.50;65.60
79030;DHT22;68511;51.146;7.012;2023-09-07T02:18:35;19.50;65.60
79030;DHT22;68511;51.146;7.012;2023-09-07T02:19:35;19.50;65.60
79030;DHT22;68511;51.146;7.012;2023-09-07T02:20:36;19.50;65.60
79030;DHT22;68511;51.146;7.012;2023-09-07T02:21:36;19.50;65.60
79030;DHT22;68511;51.146;7.012;2023-09-07T02:22:37;19.50;65.60
79030;DHT22;68511;51.146;7.012;2023-09-07T02:23:37;19.50;65.70
79030;DHT22;68511;51.146;7.012;2023-09-07T02:24:38;19.50;65.60
79030;DHT22;68511;51.146;7.012;2023-09-07T02:25:38;19.50;65.60
79030;DHT22;68511;51.146;7.012;2023-09-07T02:26:40;19.50;65.60
79030;DHT22;68511;51.146;7.012;2023-09-07T02:27:45;19.50;65.60
79030;DHT22;68511;51.146;7.012;2023-09-07T02:28:45;19.50;65.60
79030;DHT22;68511;51.146;7.012;2023-09-07T02:29:46;19.50;65.60
79030;DHT22;68511;51.146;7.012;2023-09-07T02:30:46;19.50;65.60
79030;DHT22;68511;51.146;7.012;2023-09-07T02:31:46;19.40;65.50
79030;DHT22;68511;51.146;7.012;2023-09-07T02:32:47;19.50;65.60
79030;DHT22;68511;51.146;7.012;2023-09-07T02:33:47;19.50;65.60
79030;DHT22;68511;51.146;7.012;2023-09-07T02:34:48;19.50;65.60
79030;DHT22;68511;51.146;7.012;2023-09-07T02:35:48;19.50;65.60
79030;DHT22;68511;51.146;7.012;2023-09-07T02:36:49;19.50;65.60
79030;DHT22;68511;51.146;7.012;2023-09-07T02:37:50;19.40;65.50
79030;DHT22;68511;51.146;7.012;2023-09-07T02:38:50;19.50;65.60
79030;DHT22;68511;51.146;7.012;2023-09-07T02:39:51;19.50;65.60
79030;DHT22;68511;51.146;7.012;2023-09-07T02:40:51;19.50;65.60
79030;DHT22;68511;51.146;7.012;2023-09-07T02:41:52;19.50;65.60
79030;DHT22;68511;51.146;7.012;2023-09-07T02:42:52;19.40;65.50
79030;DHT22;68511;51.146;7.012;2023-09-07T02:43:53;19.40;65.50
79030;DHT22;68511;51.146;7.012;2023-09-07T02:44:53;19.50;65.50
79030;DHT22;68511;51.146;7.012;2023-09-07T02:45:54;19.50;65.50
79030;DHT22;68511;51.146;7.012;2023-09-07T02:46:54;19.50;65.60
79030;DHT22;68511;51.146;7.012;2023-09-07T02:47:55;19.50;65.50
79030;DHT22;68511;51.146;7.012;2023-09-07T02:48:56;19.50;65.50
79030;DHT22;68511;51.146;7.012;2023-09-07T02:49:57;19.50;65.50
79030;DHT22;68511;51.146;7.012;2023-09-07T02:50:58;19.40;65.40
79030;DHT22;68511;51.146;7.012;2023-09-07T02:52:00;19.50;65.50
79030;DHT22;68511;51.146;7.012;2023-09-07T02:53:01;19.40;65.50
79030;DHT22;68511;51.146;7.012;2023-09-07T02:54:02;19.40;65.40
79030;DHT22;68511;51.146;7.012;2023-09-07T02:55:03;19.40;65.50
79030;DHT22;68511;51.146;7.012;2023-09-07T02:56:04;19.40;65.40
79030;DHT22;68511;51.146;7.012;2023-09-07T02:57:05;19.50;65.50
79030;DHT22;68511;51.146;7.012;2023-09-07T02:58:05;19.40;65.40
79030;DHT22;68511;51.146;7.012;2023-09-07T02:59:05;19.40;65.40
79030;DHT22;68511;51.146;7.012;2023-09-07T03:00:06;19.40;65.40
79030;DHT22;68511;51.146;7.012;2023-09-07T03:01:10;19.40;65.50
79030;DHT22;68511;51.146;7.012;2023-09-07T03:02:10;19.50;65.50
79030;DHT22;68511;51.146;7.012;2023-09-07T03:03:11;19.40;65.40
79030;DHT22;68511;51.146;7.012;2023-09-07T03:04:12;19.40;65.40
79030;DHT22;68511;51.146;7.012;2023-09-07T03:05:12;19.40;65.40
79030;DHT22;68511;51.146;7.012;2023-09-07T03:06:13;19.40;65.40
79030;DHT22;68511;51.146;7.012;2023-09-07T03:07:14;19.40;65.30
79030;DHT22;68511;51.146;7.012;2023-09-07T03:08:14;19.40;65.40
79030;DHT22;68511;51.146;7.012;2023-09-07T03:09:15;19.40;65.20
79030;DHT22;68511;51.146;7.012;2023-09-07T03:10:15;19.40;65.30
79030;DHT22;68511;51.146;7.012;2023-09-07T03:11:15;19.40;65.20
79030;DHT22;68511;51.146;7.012;2023-09-07T03:12:16;19.40;65.20
79030;DHT22;68511;51.146;7.012;2023-09-07T03:13:16;19.40;65.20
79030;DHT22;68511;51.146;7.012;2023-09-07T03:14:17;19.40;65.20
79030;DHT22;68511;51.146;7.012;2023-09-07T03:15:17;19.40;65.10
79030;DHT22;68511;51.146;7.012;2023-09-07T03:16:18;19.40;65.20
79030;DHT22;68511;51.146;7.012;2023-09-07T03:17:18;19.40;65.20
79030;DHT22;68511;51.146;7.012;2023-09-07T03:18:20;19.40;65.20
79030;DHT22;68511;51.146;7.012;2023-09-07T03:19:21;19.40;65.20
79030;DHT22;68511;51.146;7.012;2023-09-07T03:20:21;19.40;65.20
79030;DHT22;68511;51.146;7.012;2023-09-07T03:21:22;19.40;65.20
79030;DHT22;68511;51.146;7.012;2023-09-07T03:22:29;19.40;65.20
79030;DHT22;68511;51.146;7.012;2023-09-07T03:23:30;19.40;65.20
79030;DHT22;68511;51.146;7.012;2023-09-07T03:24:30;19.40;65.20
79030;DHT22;68511;51.146;7.012;2023-09-07T03:25:31;19.40;65.20
79030;DHT22;68511;51.146;7.012;2023-09-07T03:26:31;19.40;65.20
79030;DHT22;68511;51.146;7.012;2023-09-07T03:27:32;19.40;65.20
79030;DHT22;68511;51.146;7.012;2023-09-07T03:28:32;19.40;65.10
79030;DHT22;68511;51.146;7.012;2023-09-07T03:29:33;19.40;65.10
79030;DHT22;68511;51.146;7.012;2023-09-07T03:30:36;19.40;65.10
79030;DHT22;68511;51.146;7.012;2023-09-07T03:31:36;19.40;65.10
79030;DHT22;68511;51.146;7.012;2023-09-07T03:32:37;19.40;65.10
79030;DHT22;68511;51.146;7.012;2023-09-07T03:33:37;19.40;65.10
79030;DHT22;68511;51.146;7.012;2023-09-07T03:34:38;19.40;65.10
79030;DHT22;68511;51.146;7.012;2023-09-07T03:35:39;19.40;65.10
79030;DHT22;68511;51.146;7.012;2023-09-07T03:36:41;19.40;65.10
79030;DHT22;68511;51.146;7.012;2023-09-07T03:37:42;19.40;65.00
79030;DHT22;68511;51.146;7.012;2023-09-07T03:38:42;19.40;65.00
79030;DHT22;68511;51.146;7.012;2023-09-07T03:39:43;19.40;65.00
79030;DHT22;68511;51.146;7.012;2023-09-07T03:40:43;19.40;65.10
79030;DHT22;68511;51.146;7.012;2023-09-07T03:41:44;19.40;65.10
79030;DHT22;68511;51.146;7.012;2023-09-07T03:42:45;19.40;65.10
79030;DHT22;68511;51.146;7.012;2023-09-07T03:43:46;19.40;65.00
79030;DHT22;68511;51.146;7.012;2023-09-07T03:44:47;19.40;65.00
79030;DHT22;68511;51.146;7.012;2023-09-07T03:45:48;19.40;65.10
79030;DHT22;68511;51.146;7.012;2023-09-07T03:46:48;19.40;65.00
79030;DHT22;68511;51.146;7.012;2023-09-07T03:47:51;19.40;65.00
79030;DHT22;68511;51.146;7.012;2023-09-07T03:48:52;19.40;65.00
79030;DHT22;68511;51.146;7.012;2023-09-07T03:49:52;19.40;65.10
79030;DHT22;68511;51.146;7.012;2023-09-07T03:50:53;19.40;65.10
79030;DHT22;68511;51.146;7.012;2023-09-07T03:51:53;19.50;65.10
79030;DHT22;68511;51.146;7.012;2023-09-07T03:52:54;19.40;65.00
79030;DHT22;68511;51.146;7.012;2023-09-07T03:53:54;19.40;65.10
79030;DHT22;68511;51.146;7.012;2023-09-07T03:54:55;19.40;65.00
79030;DHT22;68511;51.146;7.012;2023-09-07T03:55:58;19.40;65.00
79030;DHT22;68511;51.146;7.012;2023-09-07T03:56:58;19.40;64.90
79030;DHT22;68511;51.146;7.012;2023-09-07T03:57:59;19.40;64.90
79030;DHT22;68511;51.146;7.012;2023-09-07T03:58:59;19.40;64.90
79030;DHT22;68511;51.146;7.012;2023-09-07T04:00:00;19.40;65.00
79030;DHT22;68511;51.146;7.012;2023-09-07T04:01:00;19.40;64.90
79030;DHT22;68511;51.146;7.012;2023-09-07T04:02:01;19.40;64.80
79030;DHT22;68511;51.146;7.012;2023-09-07T04:03:01;19.40;64.80
79030;DHT22;68511;51.146;7.012;2023-09-07T04:04:02;19.40;64.90
79030;DHT22;68511;51.146;7.012;2023-09-07T04:05:03;19.40;65.70
79030;DHT22;68511;51.146;7.012;2023-09-07T04:06:05;19.40;65.00
79030;DHT22;68511;51.146;7.012;2023-09-07T04:07:06;19.40;64.90
79030;DHT22;68511;51.146;7.012;2023-09-07T04:08:06;19.40;64.70
79030;DHT22;68511;51.146;7.012;2023-09-07T04:09:07;19.40;64.70
79030;DHT22;68511;51.146;7.012;2023-09-07T04:10:08;19.40;64.70
79030;DHT22;68511;51.146;7.012;2023-09-07T04:11:08;19.40;64.70
79030;DHT22;68511;51.146;7.012;2023-09-07T04:12:09;19.40;64.70
79030;DHT22;68511;51.146;7.012;2023-09-07T04:13:09;19.40;64.80
79030;DHT22;68511;51.146;7.012;2023-09-07T04:14:11;19.40;65.50
79030;DHT22;68511;51.146;7.012;2023-09-07T04:15:12;19.40;64.80
79030;DHT22;68511;51.146;7.012;2023-09-07T04:16:12;19.40;64.80
79030;DHT22;68511;51.146;7.012;2023-09-07T04:17:12;19.40;64.90
79030;DHT22;68511;51.146;7.012;2023-09-07T04:18:13;19.40;64.90
79030;DHT22;68511;51.146;7.012;2023-09-07T04:19:15;19.40;64.90
79030;DHT22;68511;51.146;7.012;2023-09-07T04:20:15;19.40;64.80
79030;DHT22;68511;51.146;7.012;2023-09-07T04:21:17;19.40;64.70
79030;DHT22;68511;51.146;7.012;2023-09-07T04:22:17;19.40;64.60
79030;DHT22;68511;51.146;7.012;2023-09-07T04:23:18;19.40;64.60
79030;DHT22;68511;51.146;7.012;2023-09-07T04:24:18;19.40;64.70
79030;DHT22;68511;51.146;7.012;2023-09-07T04:25:19;19.40;64.70
79030;DHT22;68511;51.146;7.012;2023-09-07T04:26:20;19.40;64.70
79030;DHT22;68511;51.146;7.012;2023-09-07T04:27:20;19.40;64.60
79030;DHT22;68511;51.146;7.012;2023-09-07T04:28:21;19.40;64.50
79030;DHT22;68511;51.146;7.012;2023-09-07T04:29:21;19.40;64.40
79030;DHT22;68511;51.146;7.012;2023-09-07T04:30:22;19.40;64.30
79030;DHT22;68511;51.146;7.012;2023-09-07T04:31:22;19.40;64.30
79030;DHT22;68511;51.146;7.012;2023-09-07T04:32:27;19.40;64.40
79030;DHT22;68511;51.146;7.012;2023-09-07T04:33:30;19.40;64.60
79030;DHT22;68511;51.146;7.012;2023-09-07T04:34:31;19.40;64.60
79030;DHT22;68511;51.146;7.012;2023-09-07T04:35:32;19.40;64.60
79030;DHT22;68511;51.146;7.012;2023-09-07T04:36:33;19.40;65.40
79030;DHT22;68511;51.146;7.012;2023-09-07T04:37:33;19.40;64.70
79030;DHT22;68511;51.146;7.012;2023-09-07T04:38:34;19.40;64.70
79030;DHT22;68511;51.146;7.012;2023-09-07T04:39:34;19.40;64.70
79030;DHT22;68511;51.146;7.012;2023-09-07T04:40:35;19.40;64.70
79030;DHT22;68511;51.146;7.012;2023-09-07T04:41:35;19.40;64.80
79030;DHT22;68511;51.146;7.012;2023-09-07T04:42:36;19.40;64.80
79030;DHT22;68511;51.146;7.012;2023-09-07T04:43:36;19.40;64.70
79030;DHT22;68511;51.146;7.012;2023-09-07T04:44:37;19.40;64.70
79030;DHT22;68511;51.146;7.012;2023-09-07T04:45:45;19.40;64.70
79030;DHT22;68511;51.146;7.012;2023-09-07T04:46:45;19.40;64.70
79030;DHT22;68511;51.146;7.012;2023-09-07T04:47:46;19.40;64.70
79030;DHT22;68511;51.146;7.012;2023-09-07T04:48:46;19.40;64.60
79030;DHT22;68511;51.146;7.012;2023-09-07T04:49:48;19.40;64.60
79030;DHT22;68511;51.146;7.012;2023-09-07T04:50:57;19.40;64.50
79030;DHT22;68511;51.146;7.012;2023-09-07T04:51:57;19.40;64.40
79030;DHT22;68511;51.146;7.012;2023-09-07T04:52:58;19.40;64.50
79030;DHT22;68511;51.146;7.012;2023-09-07T04:53:58;19.40;64.50
79030;DHT22;68511;51.146;7.012;2023-09-07T04:54:59;19.40;64.40
79030;DHT22;68511;51.146;7.012;2023-09-07T04:55:59;19.40;64.40
79030;DHT22;68511;51.146;7.012;2023-09-07T04:56:59;19.40;64.30
79030;DHT22;68511;51.146;7.012;2023-09-07T04:58:00;19.40;64.40
79030;DHT22;68511;51.146;7.012;2023-09-07T04:59:00;19.40;64.40
79030;DHT22;68511;51.146;7.012;2023-09-07T05:00:01;19.40;64.30
79030;DHT22;68511;51.146;7.012;2023-09-07T05:01:04;19.40;64.30
79030;DHT22;68511;51.146;7.012;2023-09-07T05:02:04;19.40;64.30
79030;DHT22;68511;51.146;7.012;2023-09-07T05:03:05;19.40;64.20
79030;DHT22;68511;51.146;7.012;2023-09-07T05:04:05;19.40;64.10
79030;DHT22;68511;51.146;7.012;2023-09-07T05:05:06;19.40;64.20
79030;DHT22;68511;51.146;7.012;2023-09-07T05:06:06;19.40;64.20
79030;DHT22;68511;51.146;7.012;2023-09-07T05:07:07;19.40;64.10
79030;DHT22;68511;51.146;7.012;2023-09-07T05:08:07;19.40;64.00
79030;DHT22;68511;51.146;7.012;2023-09-07T05:09:08;19.40;63.90
79030;DHT22;68511;51.146;7.012;2023-09-07T05:10:08;19.40;63.80
79030;DHT22;68511;51.146;7.012;2023-09-07T05:11:12;19.40;63.80
79030;DHT22;68511;51.146;7.012;2023-09-07T05:12:12;19.40;63.70
79030;DHT22;68511;51.146;7.012;2023-09-07T05:13:14;19.40;63.70
79030;DHT22;68511;51.146;7.012;2023-09-07T05:14:15;19.40;63.60
79030;DHT22;68511;51.146;7.012;2023-09-07T05:15:15;19.40;63.70
79030;DHT22;68511;51.146;7.012;2023-09-07T05:16:15;19.40;63.60
79030;DHT22;68511;51.146;7.012;2023-09-07T05:17:16;19.40;63.60
79030;DHT22;68511;51.146;7.012;2023-09-07T05:18:17;19.40;63.60
79030;DHT22;68511;51.146;7.012;2023-09-07T05:19:17;19.40;63.60
79030;DHT22;68511;51.146;7.012;2023-09-07T05:20:18;19.40;63.60
79030;DHT22;68511;51.146;7.012;2023-09-07T05:21:18;19.40;63.60
79030;DHT22;68511;51.146;7.012;2023-09-07T05:22:19;19.40;63.60
79030;DHT22;68511;51.146;7.012;2023-09-07T05:23:20;19.40;63.60
79030;DHT22;68511;51.146;7.012;2023-09-07T05:24:21;19.40;63.60
79030;DHT22;68511;51.146;7.012;2023-09-07T05:25:21;19.40;63.60
79030;DHT22;68511;51.146;7.012;2023-09-07T05:26:22;19.40;63.60
79030;DHT22;68511;51.146;7.012;2023-09-07T05:27:26;19.40;63.60
79030;DHT22;68511;51.146;7.012;2023-09-07T05:28:26;19.40;63.60
79030;DHT22;68511;51.146;7.012;2023-09-07T05:29:26;19.40;63.60
79030;DHT22;68511;51.146;7.012;2023-09-07T05:30:27;19.40;63.60
79030;DHT22;68511;51.146;7.012;2023-09-07T05:31:27;19.40;63.60
79030;DHT22;68511;51.146;7.012;2023-09-07T05:32:28;19.40;63.60
79030;DHT22;68511;51.146;7.012;2023-09-07T05:33:29;19.40;63.60
79030;DHT22;68511;51.146;7.012;2023-09-07T05:34:29;19.40;63.60
79030;DHT22;68511;51.146;7.012;2023-09-07T05:35:30;19.40;63.70
79030;DHT22;68511;51.146;7.012;2023-09-07T05:36:32;19.40;63.70
79030;DHT22;68511;51.146;7.012;2023-09-07T05:37:33;19.40;63.70
79030;DHT22;68511;51.146;7.012;2023-09-07T05:38:33;19.40;63.70
79030;DHT22;68511;51.146;7.012;2023-09-07T05:39:33;19.40;63.70
79030;DHT22;68511;51.146;7.012;2023-09-07T05:40:38;19.40;63.80
79030;DHT22;68511;51.146;7.012;2023-09-07T05:41:38;19.40;63.80
79030;DHT22;68511;51.146;7.012;2023-09-07T05:42:39;19.40;63.80
79030;DHT22;68511;51.146;7.012;2023-09-07T05:43:39;19.40;63.80
79030;DHT22;68511;51.146;7.012;2023-09-07T05:44:40;19.40;63.90
79030;DHT22;68511;51.146;7.012;2023-09-07T05:45:40;19.40;64.00
79030;DHT22;68511;51.146;7.012;2023-09-07T05:46:41;19.40;63.90
79030;DHT22;68511;51.146;7.012;2023-09-07T05:47:41;19.40;63.90
79030;DHT22;68511;51.146;7.012;2023-09-07T05:48:42;19.40;64.00
79030;DHT22;68511;51.146;7.012;2023-09-07T05:49:42;19.40;64.20
79030;DHT22;68511;51.146;7.012;2023-09-07T05:50:43;19.40;64.00
79030;DHT22;68511;51.146;7.012;2023-09-07T05:51:44;19.40;64.00
79030;DHT22;68511;51.146;7.012;2023-09-07T05:52:44;19.40;64.10
79030;DHT22;68511;51.146;7.012;2023-09-07T05:53:45;19.40;64.10
79030;DHT22;68511;51.146;7.012;2023-09-07T05:54:45;19.40;64.10
79030;DHT22;68511;51.146;7.012;2023-09-07T05:55:46;19.40;64.10
79030;DHT22;68511;51.146;7.012;2023-09-07T05:56:46;19.40;64.10
79030;DHT22;68511;51.146;7.012;2023-09-07T05:57:48;19.40;64.10
79030;DHT22;68511;51.146;7.012;2023-09-07T05:58:49;19.40;64.20
79030;DHT22;68511;51.146;7.012;2023-09-07T05:59:49;19.40;64.20
79030;DHT22;68511;51.146;7.012;2023-09-07T06:00:50;19.40;64.20
79030;DHT22;68511;51.146;7.012;2023-09-07T06:01:50;19.40;64.20
79030;DHT22;68511;51.146;7.012;2023-09-07T06:02:51;19.40;64.30
79030;DHT22;68511;51.146;7.012;2023-09-07T06:03:51;19.40;64.30
79030;DHT22;68511;51.146;7.012;2023-09-07T06:04:52;19.40;64.30
79030;DHT22;68511;51.146;7.012;2023-09-07T06:05:53;19.40;64.30
79030;DHT22;68511;51.146;7.012;2023-09-07T06:06:53;19.40;64.30
79030;DHT22;68511;51.146;7.012;2023-09-07T06:07:54;19.40;64.30
79030;DHT22;68511;51.146;7.012;2023-09-07T06:08:54;19.40;64.40
79030;DHT22;68511;51.146;7.012;2023-09-07T06:09:55;19.40;64.30
79030;DHT22;68511;51.146;7.012;2023-09-07T06:10:55;19.40;64.40
79030;DHT22;68511;51.146;7.012;2023-09-07T06:11:56;19.40;64.40
79030;DHT22;68511;51.146;7.012;2023-09-07T06:12:56;19.40;64.40
79030;DHT22;68511;51.146;7.012;2023-09-07T06:13:57;19.40;64.40
79030;DHT22;68511;51.146;7.012;2023-09-07T06:14:58;19.40;64.40
79030;DHT22;68511;51.146;7.012;2023-09-07T06:15:59;19.40;64.40
79030;DHT22;68511;51.146;7.012;2023-09-07T06:17:00;19.40;64.40
79030;DHT22;68511;51.146;7.012;2023-09-07T06:18:01;19.40;64.40
79030;DHT22;68511;51.146;7.012;2023-09-07T06:19:01;19.40;64.50
79030;DHT22;68511;51.146;7.012;2023-09-07T06:20:02;19.40;64.50
79030;DHT22;68511;51.146;7.012;2023-09-07T06:21:03;19.40;64.50
79030;DHT22;68511;51.146;7.012;2023-09-07T06:22:04;19.40;64.60
79030;DHT22;68511;51.146;7.012;2023-09-07T06:23:05;19.40;64.50
79030;DHT22;68511;51.146;7.012;2023-09-07T06:24:05;19.40;64.60